Time;durP1;ratioP1;P1;durP2;ratioP2;P2;SDS_P1;SDS_P2;PMS_P1;PMS_P2;Temp;Humidity;BMP_temperature;BMP_pressure;BME280_temperature;BME280_humidity;BME280_pressure;Samples;Min_cycle;Max_cycle;Signal;HPM_P1;HPM_P2
2023/12/15 00:02:01;;;;;;;34.00;19.40;;;;;;;;;;4972960;28;20664;-47
2023/12/15 00:04:28;;;;;;;32.20;18.80;;;;;;;;;;4972833;28;20233;-47
2023/12/15 00:06:54;;;;;;;30.97;17.67;;;;;;;;;;4972926;28;20199;-47
2023/12/15 00:09:20;;;;;;;33.23;19.30;;;;;;;;;;4972837;28;20803;-47
2023/12/15 00:11:46;;;;;;;33.97;20.10;;;;;;;;;;4972270;28;20265;-47
2023/12/15 00:14:12;;;;;;;31.47;19.47;;;;;;;;;;4973038;28;20447;-47
2023/12/15 00:16:38;;;;;;;35.67;20.40;;;;;;;;;;4972688;28;20278;-47
2023/12/15 00:19:04;;;;;;;34.67;20.13;;;;;;;;;;4972682;28;20912;-47
2023/12/15 00:21:31;;;;;;;34.43;20.00;;;;;;;;;;4972675;28;20434;-47
2023/12/15 00:23:57;;;;;;;34.13;20.30;;;;;;;;;;4972426;28;20235;-47
2023/12/15 00:26:23;;;;;;;30.97;19.13;;;;;;;;;;4972580;28;20445;-46
2023/12/15 00:28:49;;;;;;;35.97;19.40;;;;;;;;;;4972243;28;20580;-47
2023/12/15 00:31:15;;;;;;;34.10;19.27;;;;;;;;;;4972566;28;20199;-47
2023/12/15 00:33:41;;;;;;;30.07;19.80;;;;;;;;;;4973754;28;20238;-47
2023/12/15 00:36:07;;;;;;;35.43;19.43;;;;;;;;;;4976408;28;20287;-47
2023/12/15 00:38:35;;;;;;;31.37;19.43;;;;;;;;;;4975749;28;20864;-47
2023/12/15 00:41:01;;;;;;;34.57;19.67;;;;;;;;;;4976357;28;20453;-47
2023/12/15 00:43:27;;;;;;;33.33;20.13;;;;;;;;;;4975995;28;20442;-47
2023/12/15 00:45:53;;;;;;;32.27;19.63;;;;;;;;;;4976271;28;20545;-47
2023/12/15 00:48:19;;;;;;;33.00;20.10;;;;;;;;;;4976260;28;20206;-47
2023/12/15 00:50:45;;;;;;;33.60;19.97;;;;;;;;;;4975530;28;20203;-47
2023/12/15 00:53:11;;;;;;;33.60;19.17;;;;;;;;;;4976244;28;20438;-47
2023/12/15 00:55:38;;;;;;;32.40;19.70;;;;;;;;;;4975866;28;20920;-47
2023/12/15 00:58:04;;;;;;;32.70;19.13;;;;;;;;;;4976123;28;20220;-47
2023/12/15 01:00:31;;;;;;;31.73;18.90;;;;;;;;;;4975791;28;20963;-47
2023/12/15 01:02:57;;;;;;;32.10;18.87;;;;;;;;;;4972157;28;20883;-46
2023/12/15 01:05:22;;;;;;;28.60;18.77;;;;;;;;;;4972369;28;20528;-46
2023/12/15 01:07:48;;;;;;;34.47;19.67;;;;;;;;;;4975901;28;20294;-49
2023/12/15 01:10:15;;;;;;;30.40;18.73;;;;;;;;;;4975809;28;20203;-48
2023/12/15 01:12:42;;;;;;;35.07;18.97;;;;;;;;;;4975812;28;20202;-49
2023/12/15 01:15:08;;;;;;;30.43;18.77;;;;;;;;;;4976086;28;20438;-46
2023/12/15 01:17:34;;;;;;;33.97;20.17;;;;;;;;;;4975516;28;20979;-48
2023/12/15 01:20:00;;;;;;;32.93;19.17;;;;;;;;;;4975659;28;20945;-46
2023/12/15 01:22:26;;;;;;;29.57;19.33;;;;;;;;;;4975685;28;20450;-47
2023/12/15 01:24:52;;;;;;;31.10;19.83;;;;;;;;;;4975813;28;20227;-47
2023/12/15 01:27:18;;;;;;;34.57;20.77;;;;;;;;;;4975434;28;20262;-47
2023/12/15 01:29:45;;;;;;;30.90;19.30;;;;;;;;;;4975468;28;20446;-47
2023/12/15 01:32:11;;;;;;;32.73;19.60;;;;;;;;;;4975462;28;20960;-46
2023/12/15 01:34:37;;;;;;;27.80;18.17;;;;;;;;;;4975395;28;20430;-47
2023/12/15 01:37:03;;;;;;;30.07;18.83;;;;;;;;;;4975534;28;20328;-47
2023/12/15 01:39:29;;;;;;;30.97;19.27;;;;;;;;;;4975322;28;20199;-47
2023/12/15 01:41:55;;;;;;;29.00;19.50;;;;;;;;;;4975311;28;20584;-47
2023/12/15 01:44:21;;;;;;;27.30;18.30;;;;;;;;;;4974917;28;20651;-47
2023/12/15 01:46:49;;;;;;;30.60;19.97;;;;;;;;;;4974629;28;20466;-47
2023/12/15 01:49:15;;;;;;;29.50;19.07;;;;;;;;;;4975192;28;20218;-47
2023/12/15 01:51:41;;;;;;;27.60;18.40;;;;;;;;;;4975113;28;20449;-47
2023/12/15 01:54:07;;;;;;;29.27;18.83;;;;;;;;;;4975229;28;20434;-47
2023/12/15 01:56:33;;;;;;;26.53;18.97;;;;;;;;;;4975022;28;20434;-47
2023/12/15 01:58:59;;;;;;;28.67;19.07;;;;;;;;;;4975118;28;20504;-47
2023/12/15 02:01:25;;;;;;;29.03;19.33;;;;;;;;;;4974953;28;20293;-47
2023/12/15 02:03:52;;;;;;;30.73;19.80;;;;;;;;;;4973138;28;20565;-47
2023/12/15 02:06:18;;;;;;;25.37;17.57;;;;;;;;;;4974906;28;20544;-47
2023/12/15 02:08:44;;;;;;;28.37;18.93;;;;;;;;;;4974660;28;20438;-47
2023/12/15 02:11:10;;;;;;;29.87;18.77;;;;;;;;;;4974852;28;20242;-47
2023/12/15 02:13:37;;;;;;;30.20;19.43;;;;;;;;;;4971181;28;20508;-47
2023/12/15 02:16:03;;;;;;;28.73;19.20;;;;;;;;;;4974659;28;20565;-47
2023/12/15 02:18:29;;;;;;;29.63;18.27;;;;;;;;;;4969425;28;20482;-47
2023/12/15 02:20:56;;;;;;;30.47;19.43;;;;;;;;;;4969863;28;20854;-48
2023/12/15 02:23:23;;;;;;;32.80;21.30;;;;;;;;;;4974504;28;20474;-47
2023/12/15 02:25:51;;;;;;;34.93;21.13;;;;;;;;;;4971003;28;20813;-47
2023/12/15 02:28:17;;;;;;;32.93;20.23;;;;;;;;;;4970932;28;21032;-46
2023/12/15 02:30:43;;;;;;;38.13;22.13;;;;;;;;;;4969201;28;20445;-46
2023/12/15 02:33:11;;;;;;;33.83;20.70;;;;;;;;;;4967664;28;20306;-46
2023/12/15 02:35:37;;;;;;;32.50;21.77;;;;;;;;;;4972537;28;20666;-47
2023/12/15 02:38:07;;;;;;;31.77;20.47;;;;;;;;;;4970871;28;21004;-47
2023/12/15 02:40:34;;;;;;;31.27;19.63;;;;;;;;;;4969015;28;20438;-47
2023/12/15 02:43:00;;;;;;;34.97;21.57;;;;;;;;;;4970761;28;20450;-47
2023/12/15 02:45:26;;;;;;;33.13;19.43;;;;;;;;;;4969014;28;20474;-47
2023/12/15 02:47:52;;;;;;;33.27;19.97;;;;;;;;;;4969236;28;20570;-47
2023/12/15 02:50:18;;;;;;;29.37;19.27;;;;;;;;;;4967317;28;20281;-47
2023/12/15 02:52:44;;;;;;;35.33;20.93;;;;;;;;;;4967309;28;20952;-47
2023/12/15 02:55:13;;;;;;;33.53;20.40;;;;;;;;;;4965655;28;20434;-47
2023/12/15 02:57:40;;;;;;;32.57;20.37;;;;;;;;;;4963663;28;20286;-47
2023/12/15 03:00:06;;;;;;;32.37;21.07;;;;;;;;;;4965441;28;20539;-47
2023/12/15 03:02:32;;;;;;;33.10;20.50;;;;;;;;;;4968617;28;20435;-47
2023/12/15 03:04:58;;;;;;;34.27;19.97;;;;;;;;;;4966976;28;20496;-47
2023/12/15 03:07:24;;;;;;;31.27;19.40;;;;;;;;;;4965369;28;20435;-47
2023/12/15 03:09:50;;;;;;;34.13;20.23;;;;;;;;;;4966844;28;20209;-47
2023/12/15 03:12:16;;;;;;;29.50;20.07;;;;;;;;;;4961744;28;20198;-46
2023/12/15 03:14:44;;;;;;;31.13;19.73;;;;;;;;;;4966811;28;20464;-47
2023/12/15 03:17:10;;;;;;;30.43;20.13;;;;;;;;;;4965203;28;20562;-47
2023/12/15 03:19:39;;;;;;;31.27;21.47;;;;;;;;;;4963266;28;20430;-47
2023/12/15 03:22:05;;;;;;;28.30;19.67;;;;;;;;;;4961529;28;20274;-47
2023/12/15 03:24:31;;;;;;;32.20;18.70;;;;;;;;;;4963187;28;20486;-47
2023/12/15 03:26:57;;;;;;;31.40;18.73;;;;;;;;;;4959905;28;20226;-47
2023/12/15 03:29:23;;;;;;;34.17;22.33;;;;;;;;;;4964969;28;20266;-47
2023/12/15 03:31:50;;;;;;;28.00;19.33;;;;;;;;;;4961293;28;20207;-47
2023/12/15 03:34:16;;;;;;;29.33;19.47;;;;;;;;;;4961508;28;20200;-47
2023/12/15 03:36:42;;;;;;;30.60;19.27;;;;;;;;;;4961424;28;20652;-47
2023/12/15 03:39:09;;;;;;;28.60;19.70;;;;;;;;;;4961474;28;20522;-47
2023/12/15 03:41:35;;;;;;;28.40;19.20;;;;;;;;;;4961234;28;20290;-47
2023/12/15 03:44:01;;;;;;;29.07;19.30;;;;;;;;;;4959731;28;20603;-46
2023/12/15 03:46:27;;;;;;;31.83;20.23;;;;;;;;;;4961313;28;20203;-47
2023/12/15 03:48:54;;;;;;;31.50;19.43;;;;;;;;;;4962930;28;20266;-47
2023/12/15 03:51:20;;;;;;;28.67;18.67;;;;;;;;;;4959474;28;20665;-47
2023/12/15 03:53:46;;;;;;;29.77;19.07;;;;;;;;;;4961183;28;20501;-47
2023/12/15 03:56:12;;;;;;;31.80;19.97;;;;;;;;;;4963013;28;20217;-47
2023/12/15 03:58:38;;;;;;;32.03;20.63;;;;;;;;;;4959497;28;20258;-47
2023/12/15 04:01:05;;;;;;;31.53;21.10;;;;;;;;;;4961142;28;20438;-46
2023/12/15 04:03:31;;;;;;;33.53;20.17;;;;;;;;;;4959262;28;20442;-47
2023/12/15 04:06:00;;;;;;;34.57;19.73;;;;;;;;;;4961172;28;20486;-47
2023/12/15 04:08:26;;;;;;;37.50;20.97;;;;;;;;;;4963534;28;20442;-47
2023/12/15 04:10:52;;;;;;;34.67;22.00;;;;;;;;;;4979285;28;20470;-47
2023/12/15 04:13:18;;;;;;;34.40;20.43;;;;;;;;;;4979633;28;20477;-47
2023/12/15 04:15:44;;;;;;;36.07;22.10;;;;;;;;;;4979021;28;20532;-47
2023/12/15 04:18:10;;;;;;;41.07;22.43;;;;;;;;;;4979372;28;20431;-47
2023/12/15 04:20:36;;;;;;;44.80;24.30;;;;;;;;;;4979173;28;20206;-47
2023/12/15 04:23:04;;;;;;;42.20;24.07;;;;;;;;;;4979195;28;20254;-47
2023/12/15 04:25:31;;;;;;;49.30;25.33;;;;;;;;;;4978955;28;20234;-47
2023/12/15 04:27:57;;;;;;;50.40;25.93;;;;;;;;;;4979016;28;20501;-46
2023/12/15 04:30:23;;;;;;;53.87;28.20;;;;;;;;;;4979135;28;20456;-47
2023/12/15 04:32:49;;;;;;;56.60;28.07;;;;;;;;;;4979000;28;20851;-47
2023/12/15 04:35:15;;;;;;;49.93;26.27;;;;;;;;;;4979104;28;20205;-46
2023/12/15 04:37:43;;;;;;;49.87;28.00;;;;;;;;;;4979074;28;20215;-47
2023/12/15 04:40:13;;;;;;;56.00;27.53;;;;;;;;;;4979236;28;20521;-47
2023/12/15 04:42:39;;;;;;;55.70;28.23;;;;;;;;;;4979506;28;20807;-47
2023/12/15 04:45:06;;;;;;;63.40;29.20;;;;;;;;;;4978979;28;21086;-47
2023/12/15 04:47:32;;;;;;;58.57;29.30;;;;;;;;;;4978928;28;20203;-47
2023/12/15 04:49:58;;;;;;;57.67;29.03;;;;;;;;;;4979002;28;20883;-47
2023/12/15 04:52:24;;;;;;;62.33;30.30;;;;;;;;;;4979109;28;20217;-47
2023/12/15 04:54:50;;;;;;;56.67;29.80;;;;;;;;;;4978987;28;20194;-47
2023/12/15 04:57:17;;;;;;;59.27;30.37;;;;;;;;;;4978898;28;20229;-47
2023/12/15 04:59:43;;;;;;;56.50;28.80;;;;;;;;;;4978829;28;20203;-47
2023/12/15 05:02:09;;;;;;;59.43;30.77;;;;;;;;;;4979191;28;20441;-47
2023/12/15 05:04:35;;;;;;;58.23;30.97;;;;;;;;;;4978833;28;20269;-47
2023/12/15 05:07:02;;;;;;;53.03;30.30;;;;;;;;;;4978772;28;20426;-47
2023/12/15 05:09:28;;;;;;;49.93;28.37;;;;;;;;;;4978896;28;20202;-47
2023/12/15 05:11:54;;;;;;;55.17;30.30;;;;;;;;;;4978812;28;20473;-47
2023/12/15 05:14:22;;;;;;;58.87;31.83;;;;;;;;;;4978760;28;20442;-47
2023/12/15 05:16:47;;;;;;;57.03;31.20;;;;;;;;;;4978575;28;20442;-47
2023/12/15 05:19:13;;;;;;;60.40;31.10;;;;;;;;;;4978238;28;20979;-47
2023/12/15 05:21:39;;;;;;;58.97;30.53;;;;;;;;;;4974708;28;20202;-47
2023/12/15 05:24:06;;;;;;;53.23;30.27;;;;;;;;;;4975713;28;20250;-47
2023/12/15 05:26:32;;;;;;;55.47;30.00;;;;;;;;;;4975533;28;20238;-47
2023/12/15 05:28:58;;;;;;;57.50;30.90;;;;;;;;;;4975503;28;20513;-47
2023/12/15 05:31:25;;;;;;;56.37;30.43;;;;;;;;;;4975874;28;20199;-47
2023/12/15 05:33:51;;;;;;;55.83;30.33;;;;;;;;;;4975343;28;20211;-47
2023/12/15 05:36:18;;;;;;;62.70;32.60;;;;;;;;;;4975495;28;20772;-47
2023/12/15 05:38:44;;;;;;;61.10;31.27;;;;;;;;;;4975351;28;20209;-47
2023/12/15 05:41:10;;;;;;;61.43;31.73;;;;;;;;;;4975430;28;20434;-47
2023/12/15 05:43:36;;;;;;;68.30;34.10;;;;;;;;;;4975132;28;20261;-47
2023/12/15 05:46:02;;;;;;;63.17;31.53;;;;;;;;;;4975044;28;20250;-47
2023/12/15 05:48:29;;;;;;;55.93;31.50;;;;;;;;;;4975134;28;20227;-47
2023/12/15 05:50:55;;;;;;;54.57;29.00;;;;;;;;;;4975196;28;20571;-47
2023/12/15 05:53:21;;;;;;;57.20;31.20;;;;;;;;;;4975085;28;20442;-47
2023/12/15 05:55:47;;;;;;;52.33;28.97;;;;;;;;;;4975022;28;20261;-47
2023/12/15 05:58:13;;;;;;;50.83;29.27;;;;;;;;;;4975197;28;20289;-47
2023/12/15 06:00:39;;;;;;;47.93;27.17;;;;;;;;;;4974961;28;20510;-47
2023/12/15 06:03:05;;;;;;;52.27;29.67;;;;;;;;;;4975064;28;20210;-47
2023/12/15 06:05:34;;;;;;;48.70;27.67;;;;;;;;;;4974636;28;20241;-47
2023/12/15 06:08:00;;;;;;;45.47;28.23;;;;;;;;;;4974777;28;20207;-47
2023/12/15 06:10:26;;;;;;;55.17;29.43;;;;;;;;;;4974839;28;20450;-47
2023/12/15 06:12:52;;;;;;;55.57;30.70;;;;;;;;;;4974642;28;20198;-47
2023/12/15 06:15:18;;;;;;;56.43;29.93;;;;;;;;;;4974506;28;20574;-47
2023/12/15 06:17:44;;;;;;;52.70;28.63;;;;;;;;;;4974420;28;20253;-47
2023/12/15 06:20:13;;;;;;;44.03;27.00;;;;;;;;;;4974744;28;20217;-47
2023/12/15 06:22:40;;;;;;;46.03;27.00;;;;;;;;;;4974280;28;20227;-47
2023/12/15 06:25:08;;;;;;;48.57;28.87;;;;;;;;;;4974488;28;20583;-47
2023/12/15 06:27:34;;;;;;;46.30;28.00;;;;;;;;;;4974308;28;20286;-47
2023/12/15 06:30:00;;;;;;;44.00;27.13;;;;;;;;;;4974296;28;20937;-47
2023/12/15 06:32:26;;;;;;;45.23;27.77;;;;;;;;;;4973929;28;20289;-47
2023/12/15 06:34:52;;;;;;;38.83;26.77;;;;;;;;;;4974083;28;20199;-47
2023/12/15 06:37:18;;;;;;;44.20;27.10;;;;;;;;;;4974231;28;20441;-47
2023/12/15 06:39:47;;;;;;;42.23;26.03;;;;;;;;;;4974085;28;20206;-47
2023/12/15 06:42:13;;;;;;;41.93;26.07;;;;;;;;;;4974320;28;20217;-47
2023/12/15 06:44:39;;;;;;;41.43;27.00;;;;;;;;;;4974021;28;20222;-47
2023/12/15 06:47:06;;;;;;;40.97;28.40;;;;;;;;;;4974021;28;20202;-47
2023/12/15 06:49:31;;;;;;;39.23;26.37;;;;;;;;;;4973966;28;20199;-47
2023/12/15 06:51:58;;;;;;;40.83;26.73;;;;;;;;;;4974109;28;20449;-48
2023/12/15 06:54:24;;;;;;;43.30;27.27;;;;;;;;;;4974120;28;20199;-48
2023/12/15 06:56:51;;;;;;;44.40;26.67;;;;;;;;;;4973666;28;20257;-47
2023/12/15 06:59:17;;;;;;;42.13;25.43;;;;;;;;;;4973990;28;20225;-47
2023/12/15 07:01:43;;;;;;;43.23;25.77;;;;;;;;;;4973774;28;20229;-47
2023/12/15 07:04:09;;;;;;;44.23;26.97;;;;;;;;;;4973977;28;20333;-47
2023/12/15 07:06:35;;;;;;;37.97;25.23;;;;;;;;;;4973784;28;20564;-47
2023/12/15 07:09:01;;;;;;;44.40;28.33;;;;;;;;;;4973761;28;20199;-47
2023/12/15 07:11:27;;;;;;;41.90;27.43;;;;;;;;;;4973739;28;20558;-48
2023/12/15 07:13:55;;;;;;;36.37;25.70;;;;;;;;;;4973553;28;20289;-47
2023/12/15 07:16:20;;;;;;;43.50;26.30;;;;;;;;;;4973483;28;20206;-47
2023/12/15 07:18:46;;;;;;;42.77;28.00;;;;;;;;;;4973398;28;20863;-48
2023/12/15 07:21:12;;;;;;;47.73;27.67;;;;;;;;;;4973411;28;20214;-48
2023/12/15 07:23:38;;;;;;;51.17;28.27;;;;;;;;;;4973210;28;20223;-48
2023/12/15 07:26:05;;;;;;;42.93;27.10;;;;;;;;;;4973421;28;20271;-48
2023/12/15 07:28:31;;;;;;;46.03;27.33;;;;;;;;;;4973237;28;20478;-48
2023/12/15 07:30:58;;;;;;;43.07;26.17;;;;;;;;;;4973491;28;20203;-48
2023/12/15 07:33:24;;;;;;;47.17;27.63;;;;;;;;;;4973426;28;20213;-48
2023/12/15 07:35:50;;;;;;;43.77;26.80;;;;;;;;;;4972835;28;20198;-48
2023/12/15 07:38:16;;;;;;;47.90;29.70;;;;;;;;;;4973298;28;20556;-48
2023/12/15 07:40:42;;;;;;;47.87;26.60;;;;;;;;;;4970968;28;20238;-48
2023/12/15 07:43:09;;;;;;;51.27;28.17;;;;;;;;;;4972190;28;20450;-48
2023/12/15 07:45:35;;;;;;;50.17;28.90;;;;;;;;;;4972589;28;20318;-48
2023/12/15 07:48:03;;;;;;;52.27;29.43;;;;;;;;;;4972759;28;20286;-48
2023/12/15 07:50:29;;;;;;;56.13;30.33;;;;;;;;;;4972885;28;20207;-48
2023/12/15 07:52:55;;;;;;;53.03;29.40;;;;;;;;;;4972693;28;20438;-48
2023/12/15 07:55:21;;;;;;;48.47;29.23;;;;;;;;;;4972726;28;20210;-48
2023/12/15 07:57:47;;;;;;;53.00;30.20;;;;;;;;;;4972715;28;20645;-48
2023/12/15 08:00:13;;;;;;;52.30;29.30;;;;;;;;;;4972613;28;20690;-48
2023/12/15 08:02:39;;;;;;;45.67;29.27;;;;;;;;;;4972698;28;20195;-48
2023/12/15 08:05:07;;;;;;;49.93;30.10;;;;;;;;;;4972653;28;20321;-48
2023/12/15 08:07:33;;;;;;;58.00;33.13;;;;;;;;;;4972634;28;20682;-48
2023/12/15 08:09:59;;;;;;;44.87;27.33;;;;;;;;;;4972443;28;20250;-48
2023/12/15 08:12:25;;;;;;;47.13;28.43;;;;;;;;;;4972761;28;20213;-48
2023/12/15 08:14:51;;;;;;;44.97;26.53;;;;;;;;;;4972398;28;20266;-48
2023/12/15 08:17:17;;;;;;;44.47;25.97;;;;;;;;;;4972457;28;20468;-48
2023/12/15 08:19:44;;;;;;;44.80;25.67;;;;;;;;;;4972431;28;20199;-48
2023/12/15 08:22:12;;;;;;;45.60;26.53;;;;;;;;;;4972562;28;20223;-48
2023/12/15 08:24:38;;;;;;;41.30;26.17;;;;;;;;;;4972428;28;20229;-48
2023/12/15 08:27:04;;;;;;;46.50;27.37;;;;;;;;;;4972386;28;20649;-46
2023/12/15 08:29:30;;;;;;;52.30;27.57;;;;;;;;;;4972277;28;20226;-46
2023/12/15 08:31:57;;;;;;;45.30;26.37;;;;;;;;;;4972425;28;20328;-48
2023/12/15 08:34:23;;;;;;;46.43;27.27;;;;;;;;;;4972287;28;20199;-47
2023/12/15 08:36:49;;;;;;;52.83;27.77;;;;;;;;;;4972114;28;20214;-48
2023/12/15 08:39:17;;;;;;;46.00;24.77;;;;;;;;;;4972243;28;20596;-47
2023/12/15 08:41:43;;;;;;;47.90;27.40;;;;;;;;;;4972193;28;20207;-47
2023/12/15 08:44:08;;;;;;;46.73;25.53;;;;;;;;;;4972301;28;20563;-48
2023/12/15 08:46:35;;;;;;;46.63;26.33;;;;;;;;;;4972028;28;20211;-48
2023/12/15 08:49:01;;;;;;;43.30;24.97;;;;;;;;;;4972056;28;20199;-48
2023/12/15 08:51:27;;;;;;;48.17;25.50;;;;;;;;;;4972260;28;20277;-48
2023/12/15 08:53:54;;;;;;;43.23;25.27;;;;;;;;;;4972131;28;20199;-48
2023/12/15 08:56:21;;;;;;;43.37;25.57;;;;;;;;;;4975827;28;20254;-48
2023/12/15 08:58:47;;;;;;;41.07;23.53;;;;;;;;;;4975706;28;20768;-48
2023/12/15 09:01:13;;;;;;;41.10;24.70;;;;;;;;;;4975600;28;20647;-47
2023/12/15 09:03:39;;;;;;;40.40;24.93;;;;;;;;;;4975793;28;20206;-47
2023/12/15 09:06:10;;;;;;;40.87;24.57;;;;;;;;;;4975682;28;20234;-47
2023/12/15 09:08:36;;;;;;;46.70;24.80;;;;;;;;;;4975699;28;20230;-48
2023/12/15 09:11:02;;;;;;;40.90;24.43;;;;;;;;;;4975572;28;20199;-47
2023/12/15 09:13:30;;;;;;;47.00;24.67;;;;;;;;;;4975542;28;20206;-48
2023/12/15 09:15:56;;;;;;;43.03;25.37;;;;;;;;;;4975326;28;20206;-48
2023/12/15 09:18:22;;;;;;;41.67;26.13;;;;;;;;;;4975479;28;20199;-48
2023/12/15 09:20:48;;;;;;;39.70;24.07;;;;;;;;;;4975423;28;20708;-48
2023/12/15 09:23:14;;;;;;;36.40;22.73;;;;;;;;;;4975376;28;20227;-48
2023/12/15 09:25:40;;;;;;;44.53;24.33;;;;;;;;;;4975415;28;20226;-47
2023/12/15 09:28:06;;;;;;;42.77;25.57;;;;;;;;;;4975237;28;20245;-47
2023/12/15 09:30:33;;;;;;;43.23;25.40;;;;;;;;;;4975215;28;20245;-48
2023/12/15 09:32:59;;;;;;;46.07;25.07;;;;;;;;;;4975165;28;20226;-49
2023/12/15 09:35:25;;;;;;;41.53;23.83;;;;;;;;;;4975415;28;20199;-49
2023/12/15 09:37:51;;;;;;;45.37;25.20;;;;;;;;;;4975061;28;20213;-49
2023/12/15 09:40:20;;;;;;;39.43;23.93;;;;;;;;;;4975128;28;20203;-49
2023/12/15 09:42:46;;;;;;;42.57;24.20;;;;;;;;;;4974898;28;20232;-48
2023/12/15 09:45:12;;;;;;;38.33;24.27;;;;;;;;;;4974964;28;20277;-49
2023/12/15 09:47:40;;;;;;;44.10;24.50;;;;;;;;;;4975070;28;20203;-49
2023/12/15 09:50:11;;;;;;;41.10;24.03;;;;;;;;;;4974858;28;20624;-48
2023/12/15 09:52:39;;;;;;;41.30;24.00;;;;;;;;;;4975009;28;20242;-47
2023/12/15 09:55:08;;;;;;;43.30;23.90;;;;;;;;;;4974782;28;20222;-47
2023/12/15 09:57:34;;;;;;;36.90;22.50;;;;;;;;;;4975150;28;20203;-47
2023/12/15 10:00:00;;;;;;;45.77;26.00;;;;;;;;;;4974870;28;20210;-47
2023/12/15 10:02:26;;;;;;;39.13;22.47;;;;;;;;;;4975110;28;20298;-47
2023/12/15 10:04:53;;;;;;;43.00;23.20;;;;;;;;;;4974850;28;20729;-49
2023/12/15 10:07:19;;;;;;;41.20;23.53;;;;;;;;;;4974133;28;20214;-48
2023/12/15 10:09:45;;;;;;;37.97;22.13;;;;;;;;;;4975059;28;20199;-48
2023/12/15 10:12:11;;;;;;;38.43;22.57;;;;;;;;;;4975302;28;20728;-47
2023/12/15 10:14:38;;;;;;;41.50;22.03;;;;;;;;;;4974794;28;20199;-48
2023/12/15 10:17:04;;;;;;;48.60;24.13;;;;;;;;;;4974703;28;20661;-47
2023/12/15 10:19:30;;;;;;;41.20;22.87;;;;;;;;;;4974914;28;20249;-48
2023/12/15 10:21:58;;;;;;;40.23;22.00;;;;;;;;;;4974712;28;20709;-48
2023/12/15 10:24:25;;;;;;;41.47;21.17;;;;;;;;;;4974872;28;20202;-47
2023/12/15 10:26:51;;;;;;;35.67;20.73;;;;;;;;;;4974422;28;20236;-48
2023/12/15 10:29:23;;;;;;;44.90;22.53;;;;;;;;;;4974527;28;20735;-47
2023/12/15 10:31:51;;;;;;;44.37;21.87;;;;;;;;;;4974625;28;20250;-47
2023/12/15 10:34:17;;;;;;;35.10;19.93;;;;;;;;;;4974119;28;20893;-49
2023/12/15 10:36:47;;;;;;;37.37;21.30;;;;;;;;;;4974127;28;20210;-48
2023/12/15 10:39:17;;;;;;;40.80;22.33;;;;;;;;;;4974476;28;20207;-48
2023/12/15 10:41:43;;;;;;;36.13;20.57;;;;;;;;;;4974496;28;20285;-47
2023/12/15 10:44:10;;;;;;;33.23;19.47;;;;;;;;;;4974192;28;20202;-47
2023/12/15 10:46:37;;;;;;;40.10;21.53;;;;;;;;;;4974310;28;20207;-48
2023/12/15 10:49:03;;;;;;;40.37;21.93;;;;;;;;;;4974120;28;20618;-49
2023/12/15 10:51:31;;;;;;;37.93;20.80;;;;;;;;;;4974340;28;20230;-48
2023/12/15 10:53:58;;;;;;;36.50;21.27;;;;;;;;;;4974361;28;20302;-48
2023/12/15 10:56:26;;;;;;;35.50;20.70;;;;;;;;;;4974145;28;20234;-48
2023/12/15 10:58:52;;;;;;;39.30;21.77;;;;;;;;;;4973825;28;20576;-48
2023/12/15 11:01:19;;;;;;;40.60;22.00;;;;;;;;;;4972156;28;20680;-48
2023/12/15 11:03:45;;;;;;;41.40;22.47;;;;;;;;;;4973604;28;20207;-49
2023/12/15 11:06:11;;;;;;;40.53;21.30;;;;;;;;;;4973922;28;20227;-47
2023/12/15 11:08:37;;;;;;;38.20;22.97;;;;;;;;;;4973352;28;20206;-48
2023/12/15 11:11:07;;;;;;;44.17;23.57;;;;;;;;;;4973579;28;20344;-48
2023/12/15 11:13:50;;;;;;;40.87;22.13;;;;;;;;;;4973470;28;20222;-47
2023/12/15 11:16:17;;;;;;;36.60;20.73;;;;;;;;;;4973561;28;20199;-47
2023/12/15 11:18:43;;;;;;;36.03;20.57;;;;;;;;;;4972561;28;20262;-47
2023/12/15 11:21:10;;;;;;;31.93;20.37;;;;;;;;;;4973814;28;20242;-48
2023/12/15 11:23:48;;;;;;;40.20;20.67;;;;;;;;;;4973444;28;20301;-48
2023/12/15 11:26:19;;;;;;;35.17;19.17;;;;;;;;;;4973440;28;20235;-49
2023/12/15 11:28:45;;;;;;;32.57;20.10;;;;;;;;;;4973207;28;20753;-49
2023/12/15 11:31:24;;;;;;;39.17;19.87;;;;;;;;;;4973449;28;20207;-51
2023/12/15 11:33:50;;;;;;;36.47;20.23;;;;;;;;;;4973229;28;20206;-48
2023/12/15 11:36:16;;;;;;;33.70;19.47;;;;;;;;;;4973258;28;20199;-49
2023/12/15 11:38:43;;;;;;;33.90;18.70;;;;;;;;;;4973267;28;20218;-49
2023/12/15 11:41:10;;;;;;;34.00;19.23;;;;;;;;;;4973478;28;20612;-48
2023/12/15 11:43:36;;;;;;;35.93;19.73;;;;;;;;;;4973056;28;20217;-49
2023/12/15 11:46:05;;;;;;;29.63;16.93;;;;;;;;;;4972874;28;20299;-47
2023/12/15 11:48:34;;;;;;;26.60;16.80;;;;;;;;;;4973470;28;20237;-50
2023/12/15 11:51:03;;;;;;;31.03;18.10;;;;;;;;;;4973272;28;20226;-48
2023/12/15 11:53:32;;;;;;;33.47;17.60;;;;;;;;;;4971444;28;20739;-48
2023/12/15 11:56:01;;;;;;;30.73;17.03;;;;;;;;;;4973071;28;20211;-47
2023/12/15 11:58:27;;;;;;;29.77;16.93;;;;;;;;;;4972937;28;20681;-47
2023/12/15 12:00:53;;;;;;;30.00;16.53;;;;;;;;;;4973103;28;20208;-48
2023/12/15 12:03:20;;;;;;;30.47;16.27;;;;;;;;;;4973058;28;20195;-48
2023/12/15 12:05:48;;;;;;;30.43;15.90;;;;;;;;;;4972783;28;20241;-47
2023/12/15 12:08:14;;;;;;;29.83;16.60;;;;;;;;;;4972600;28;20695;-48
2023/12/15 12:10:41;;;;;;;29.70;16.07;;;;;;;;;;4972935;28;20207;-47
2023/12/15 12:13:07;;;;;;;29.13;15.20;;;;;;;;;;4972938;28;20199;-47
2023/12/15 12:15:34;;;;;;;29.77;15.50;;;;;;;;;;4972779;28;20199;-47
2023/12/15 12:18:00;;;;;;;28.20;14.97;;;;;;;;;;4972689;28;20245;-47
2023/12/15 12:20:27;;;;;;;29.63;16.03;;;;;;;;;;4973030;28;20222;-47
2023/12/15 12:22:56;;;;;;;29.60;16.10;;;;;;;;;;4972596;28;20713;-48
2023/12/15 12:25:22;;;;;;;28.37;15.80;;;;;;;;;;4972720;28;20326;-47
2023/12/15 12:27:48;;;;;;;26.67;16.27;;;;;;;;;;4972559;28;20743;-47
2023/12/15 12:30:15;;;;;;;26.90;15.77;;;;;;;;;;4974624;28;20305;-48
2023/12/15 12:32:42;;;;;;;28.03;15.60;;;;;;;;;;4976763;28;20209;-47
2023/12/15 12:35:08;;;;;;;29.30;16.27;;;;;;;;;;4976657;28;20199;-47
2023/12/15 12:37:34;;;;;;;28.37;13.83;;;;;;;;;;4976601;28;20205;-47
2023/12/15 12:40:05;;;;;;;30.30;15.50;;;;;;;;;;4976461;28;20191;-47
2023/12/15 12:42:33;;;;;;;27.13;15.83;;;;;;;;;;4976200;28;20209;-47
2023/12/15 12:44:59;;;;;;;25.77;15.57;;;;;;;;;;4974153;28;20258;-47
2023/12/15 12:47:25;;;;;;;27.73;15.23;;;;;;;;;;4975823;28;20203;-47
2023/12/15 12:49:52;;;;;;;28.33;15.03;;;;;;;;;;4975879;28;20194;-47
2023/12/15 12:52:18;;;;;;;23.70;14.20;;;;;;;;;;4975930;28;20222;-47
2023/12/15 12:54:44;;;;;;;35.60;19.93;;;;;;;;;;4975809;28;20227;-47
2023/12/15 12:57:12;;;;;;;26.80;15.30;;;;;;;;;;4976162;28;20207;-47
2023/12/15 12:59:39;;;;;;;29.80;14.90;;;;;;;;;;4975716;28;20197;-47
2023/12/15 13:02:06;;;;;;;24.97;14.23;;;;;;;;;;4975657;28;20207;-47
2023/12/15 13:04:32;;;;;;;27.23;14.37;;;;;;;;;;4975576;28;20202;-47
2023/12/15 13:06:58;;;;;;;30.53;15.50;;;;;;;;;;4975730;28;20283;-47
2023/12/15 13:09:24;;;;;;;31.00;15.43;;;;;;;;;;4975778;28;20207;-47
2023/12/15 13:11:50;;;;;;;28.27;16.00;;;;;;;;;;4975606;28;20238;-47
2023/12/15 13:14:18;;;;;;;27.67;14.23;;;;;;;;;;4975561;28;20230;-47
2023/12/15 13:16:45;;;;;;;25.17;15.67;;;;;;;;;;4975918;28;20218;-47
2023/12/15 13:19:11;;;;;;;27.63;16.07;;;;;;;;;;4975947;28;20838;-47
2023/12/15 13:21:37;;;;;;;30.03;14.97;;;;;;;;;;4975728;28;20230;-48
2023/12/15 13:24:04;;;;;;;32.40;16.07;;;;;;;;;;4975760;28;20228;-47
2023/12/15 13:26:30;;;;;;;23.13;14.83;;;;;;;;;;4975807;28;20218;-47
2023/12/15 13:28:56;;;;;;;31.40;15.37;;;;;;;;;;4975480;28;20741;-47
2023/12/15 13:31:23;;;;;;;27.90;14.67;;;;;;;;;;4975884;28;20198;-47
2023/12/15 13:33:50;;;;;;;26.10;14.67;;;;;;;;;;4975469;28;20210;-47
2023/12/15 13:36:16;;;;;;;26.13;14.67;;;;;;;;;;4975729;28;20203;-47
2023/12/15 13:38:43;;;;;;;27.27;14.70;;;;;;;;;;4975742;28;20203;-47
2023/12/15 13:41:09;;;;;;;22.07;13.97;;;;;;;;;;4974626;28;20207;-47
2023/12/15 13:43:37;;;;;;;24.03;14.53;;;;;;;;;;4975471;28;20203;-48
2023/12/15 13:46:03;;;;;;;27.37;14.50;;;;;;;;;;4975162;28;20234;-48
2023/12/15 13:48:30;;;;;;;29.53;14.53;;;;;;;;;;4975350;28;20203;-48
2023/12/15 13:50:57;;;;;;;27.40;14.77;;;;;;;;;;4975169;28;20205;-48
2023/12/15 13:53:23;;;;;;;29.37;14.40;;;;;;;;;;4975218;28;20202;-48
2023/12/15 13:55:49;;;;;;;26.17;15.43;;;;;;;;;;4972858;28;20222;-48
2023/12/15 13:58:15;;;;;;;31.17;14.80;;;;;;;;;;4974309;28;20202;-48
2023/12/15 14:00:41;;;;;;;27.27;14.80;;;;;;;;;;4974566;28;20199;-48
2023/12/15 14:03:07;;;;;;;28.87;14.73;;;;;;;;;;4974168;28;20234;-48
2023/12/15 14:05:35;;;;;;;31.27;15.10;;;;;;;;;;4974158;28;20258;-49
2023/12/15 14:08:01;;;;;;;31.83;14.90;;;;;;;;;;4974048;28;20209;-48
2023/12/15 14:10:27;;;;;;;23.70;13.70;;;;;;;;;;4972957;28;20230;-48
2023/12/15 14:12:53;;;;;;;27.97;15.03;;;;;;;;;;4974351;28;20246;-48